Time;durP1;ratioP1;P1;durP2;ratioP2;P2;SDS_P1;SDS_P2;PMS_P1;PMS_P2;Temp;Humidity;BMP_temperature;BMP_pressure;BME280_temperature;BME280_humidity;BME280_pressure;Samples;Min_cycle;Max_cycle;Signal;HPM_P1;HPM_P2
2022/06/07 00:00:56;;;;;;;11.93;6.47;;;12.30;99.90;;;;;;5044279;28;20040;-84
2022/06/07 00:03:22;;;;;;;13.02;6.20;;;12.30;99.90;;;;;;5028182;28;20040;-82
2022/06/07 00:05:48;;;;;;;15.05;6.40;;;12.20;99.90;;;;;;5042244;28;20073;-85
2022/06/07 00:08:16;;;;;;;12.10;6.25;;;12.20;99.90;;;;;;5043914;28;20064;-86
2022/06/07 00:10:46;;;;;;;9.40;6.53;;;12.20;99.90;;;;;;5028344;28;20044;-84
2022/06/07 00:13:12;;;;;;;10.27;6.65;;;12.20;99.90;;;;;;5028031;28;20098;-85
2022/06/07 00:15:39;;;;;;;13.35;7.00;;;12.20;99.90;;;;;;5044547;28;20055;-84
2022/06/07 00:18:06;;;;;;;11.45;6.45;;;12.20;99.90;;;;;;5044805;28;20048;-84
2022/06/07 00:20:32;;;;;;;9.75;6.70;;;12.20;99.90;;;;;;5045310;28;20113;-83
2022/06/07 00:22:58;;;;;;;10.23;6.72;;;12.20;99.90;;;;;;5045286;28;20063;-84
2022/06/07 00:25:25;;;;;;;10.98;7.18;;;12.20;99.90;;;;;;5027597;28;20487;-85
2022/06/07 00:27:50;;;;;;;11.60;6.78;;;12.20;99.90;;;;;;5042799;28;20040;-84
2022/06/07 00:30:17;;;;;;;11.38;7.30;;;12.10;99.90;;;;;;5026170;28;20045;-84
2022/06/07 00:32:44;;;;;;;15.18;8.23;;;12.20;99.90;;;;;;5042224;28;20052;-83
2022/06/07 00:35:12;;;;;;;12.88;8.05;;;12.20;99.90;;;;;;5028623;28;20441;-84
2022/06/07 00:37:38;;;;;;;15.27;9.07;;;12.10;99.90;;;;;;5043736;28;20048;-83
2022/06/07 00:40:05;;;;;;;13.40;9.02;;;12.10;99.90;;;;;;5028370;28;20047;-84
2022/06/07 00:42:30;;;;;;;15.73;8.38;;;12.20;99.90;;;;;;5043170;28;20605;-84
2022/06/07 00:44:56;;;;;;;18.30;9.00;;;12.10;99.90;;;;;;5059355;28;20048;-83
2022/06/07 00:47:25;;;;;;;14.15;9.15;;;12.20;99.90;;;;;;5044267;28;20033;-83
2022/06/07 00:49:53;;;;;;;15.27;8.98;;;12.20;99.90;;;;;;5042905;28;20033;-83
2022/06/07 00:52:20;;;;;;;12.50;8.48;;;12.20;99.90;;;;;;5043762;28;20040;-84
2022/06/07 00:54:46;;;;;;;17.38;8.80;;;12.20;99.90;;;;;;5025355;28;20037;-86
2022/06/07 00:57:12;;;;;;;16.58;8.93;;;12.20;99.90;;;;;;5055344;28;20025;-84
2022/06/07 00:59:38;;;;;;;15.85;8.68;;;12.20;99.90;;;;;;5047357;28;20089;-85
2022/06/07 01:02:05;;;;;;;15.88;8.80;;;12.20;99.90;;;;;;5028982;28;20051;-85
2022/06/07 01:04:31;;;;;;;12.02;8.27;;;12.20;99.90;;;;;;5044085;28;20033;-85
2022/06/07 01:12:26;;;;;;;12.85;8.30;;;12.20;99.90;;;;;;5042847;28;20117;-86
2022/06/07 01:14:52;;;;;;;13.50;8.50;;;12.20;99.90;;;;;;5043882;28;20067;-83
2022/06/07 01:17:19;;;;;;;14.07;9.00;;;12.20;99.90;;;;;;5027771;28;20506;-84
2022/06/07 01:19:46;;;;;;;14.60;8.35;;;12.20;99.90;;;;;;5042740;28;20040;-86
2022/06/07 01:22:12;;;;;;;16.55;8.93;;;12.20;99.90;;;;;;5027374;28;20040;-84
2022/06/07 01:24:37;;;;;;;15.55;8.85;;;12.20;99.90;;;;;;5026151;28;20033;-85
2022/06/07 01:27:05;;;;;;;14.30;9.15;;;12.20;99.90;;;;;;5044639;28;20037;-83
2022/06/07 01:29:30;;;;;;;12.55;8.15;;;12.20;99.90;;;;;;5043710;28;20495;-85
2022/06/07 01:31:56;;;;;;;15.55;8.77;;;12.20;99.90;;;;;;5027885;28;20052;-85
2022/06/07 01:34:22;;;;;;;14.50;8.85;;;12.20;99.90;;;;;;5045028;28;20513;-84
2022/06/07 01:36:47;;;;;;;14.38;8.38;;;12.20;99.90;;;;;;5043151;28;20570;-85
2022/06/07 01:41:57;;;;;;;12.77;8.73;;;12.20;99.90;;;;;;5041663;28;20057;-84
2022/06/07 01:44:25;;;;;;;15.43;8.35;;;12.30;99.90;;;;;;5043524;28;20505;-83
2022/06/07 01:46:52;;;;;;;14.30;8.50;;;12.20;99.90;;;;;;5042132;28;20049;-84
2022/06/07 01:49:18;;;;;;;15.45;8.38;;;12.30;99.90;;;;;;5028440;28;20029;-85
2022/06/07 01:51:44;;;;;;;14.52;9.40;;;12.20;99.90;;;;;;5043522;28;20148;-84
2022/06/07 01:54:12;;;;;;;18.60;9.02;;;12.30;99.90;;;;;;5040892;28;20120;-83
2022/06/07 01:56:38;;;;;;;15.48;8.98;;;12.30;99.90;;;;;;5041727;28;20041;-85
2022/06/07 01:59:04;;;;;;;12.75;8.70;;;12.30;99.90;;;;;;5056797;28;20048;-83
2022/06/07 02:01:30;;;;;;;14.15;8.57;;;12.30;99.90;;;;;;5043216;28;20045;-83
2022/06/07 02:03:56;;;;;;;13.65;8.65;;;12.30;99.90;;;;;;5043215;28;20457;-84
2022/06/07 02:06:22;;;;;;;15.95;8.52;;;12.40;99.90;;;;;;5026360;28;20441;-85
2022/06/07 02:08:48;;;;;;;14.32;8.63;;;12.30;99.90;;;;;;5044019;28;20036;-85
2022/06/07 02:11:17;;;;;;;14.02;8.63;;;12.30;99.90;;;;;;5026075;28;20041;-85
2022/06/07 02:13:43;;;;;;;13.60;9.30;;;12.40;99.90;;;;;;5042557;28;20033;-83
2022/06/07 02:16:10;;;;;;;16.33;9.60;;;12.30;99.90;;;;;;5040454;28;20398;-85
2022/06/07 02:18:36;;;;;;;13.90;9.05;;;12.30;99.90;;;;;;5043813;28;20032;-85
2022/06/07 02:21:02;;;;;;;15.90;9.30;;;12.30;99.90;;;;;;5042490;28;20438;-84
2022/06/07 02:23:29;;;;;;;12.55;8.98;;;12.40;99.90;;;;;;5042314;28;20033;-85
2022/06/07 02:25:58;;;;;;;13.48;8.82;;;12.40;99.90;;;;;;5043560;28;20472;-83
2022/06/07 02:28:28;;;;;;;13.32;9.18;;;12.40;99.90;;;;;;5046712;28;20033;-86
2022/06/07 02:30:55;;;;;;;14.90;9.00;;;12.40;99.90;;;;;;5045822;28;20425;-83
2022/06/07 02:33:21;;;;;;;14.52;8.80;;;12.40;99.90;;;;;;5031071;28;20083;-84
2022/06/07 02:35:48;;;;;;;13.55;9.30;;;12.40;99.90;;;;;;5046307;28;20093;-84
2022/06/07 02:38:14;;;;;;;23.08;10.02;;;12.40;99.90;;;;;;5029998;28;20064;-86
2022/06/07 02:40:41;;;;;;;18.73;9.82;;;12.50;99.90;;;;;;5028008;28;20073;-83
2022/06/07 02:43:06;;;;;;;15.10;9.45;;;12.40;99.90;;;;;;5043950;28;20431;-86
2022/06/07 02:45:32;;;;;;;16.85;9.57;;;12.40;99.90;;;;;;5045479;28;20029;-85
2022/06/07 02:47:57;;;;;;;18.20;9.13;;;12.50;99.90;;;;;;5029929;28;20047;-87
2022/06/07 02:50:23;;;;;;;13.30;8.70;;;12.50;99.90;;;;;;5029972;28;20049;-83
2022/06/07 02:52:49;;;;;;;14.73;9.35;;;12.40;99.90;;;;;;5030593;28;20515;-84
2022/06/07 02:55:15;;;;;;;13.55;8.80;;;12.50;99.90;;;;;;5045745;28;20091;-83
2022/06/07 02:57:41;;;;;;;17.00;9.27;;;12.50;99.90;;;;;;5046590;28;20063;-85
2022/06/07 03:00:10;;;;;;;14.73;9.07;;;12.40;99.90;;;;;;5046901;28;20033;-85
2022/06/07 03:02:36;;;;;;;15.15;9.85;;;12.50;99.90;;;;;;5046189;28;20040;-85
2022/06/07 03:05:02;;;;;;;16.90;9.38;;;12.50;99.90;;;;;;5032667;28;20037;-84
2022/06/07 03:07:27;;;;;;;17.80;9.35;;;12.40;99.90;;;;;;5046204;28;20502;-84
2022/06/07 03:09:53;;;;;;;16.52;9.70;;;12.40;99.90;;;;;;5030520;28;20028;-83
2022/06/07 03:12:18;;;;;;;13.85;8.73;;;12.50;99.90;;;;;;5045550;28;20032;-85
2022/06/07 03:14:44;;;;;;;14.38;9.48;;;12.50;99.90;;;;;;5028339;28;20033;-85
2022/06/07 03:17:10;;;;;;;18.88;8.95;;;12.40;99.90;;;;;;5029636;28;20040;-83
2022/06/07 03:19:35;;;;;;;15.00;8.68;;;12.50;99.90;;;;;;5045505;28;20414;-84
2022/06/07 03:22:01;;;;;;;12.88;9.05;;;12.50;99.90;;;;;;5029519;28;20564;-84
2022/06/07 03:24:27;;;;;;;14.70;9.07;;;12.50;99.90;;;;;;5043948;28;20040;-85
2022/06/07 03:26:54;;;;;;;16.58;10.18;;;12.50;99.90;;;;;;5044668;28;20025;-84
2022/06/07 03:29:19;;;;;;;15.32;9.63;;;12.50;99.90;;;;;;5028215;28;20498;-83
2022/06/07 03:31:45;;;;;;;13.60;10.10;;;12.50;99.90;;;;;;5022982;28;20044;-85
2022/06/07 03:34:11;;;;;;;13.75;8.82;;;12.50;99.90;;;;;;5044704;28;20045;-85
2022/06/07 03:36:36;;;;;;;13.65;9.52;;;12.50;99.90;;;;;;5029152;28;20499;-83
2022/06/07 03:39:07;;;;;;;15.07;10.18;;;12.50;99.90;;;;;;5045132;28;20033;-84
2022/06/07 03:41:33;;;;;;;16.23;10.02;;;12.50;99.90;;;;;;5043578;28;20120;-83
2022/06/07 03:43:59;;;;;;;15.93;9.57;;;12.50;99.90;;;;;;5044100;28;20037;-83
2022/06/07 03:46:27;;;;;;;17.75;10.10;;;12.50;99.90;;;;;;5029011;28;20047;-86
2022/06/07 03:48:54;;;;;;;16.25;9.65;;;12.50;99.90;;;;;;5045329;28;20044;-85
2022/06/07 03:51:23;;;;;;;13.85;9.30;;;12.50;99.90;;;;;;5044128;28;20081;-85
2022/06/07 03:53:49;;;;;;;13.82;9.68;;;12.50;99.90;;;;;;5044381;28;20466;-85
2022/06/07 03:56:15;;;;;;;16.15;9.50;;;12.50;99.90;;;;;;5028976;28;20119;-85
2022/06/07 03:58:42;;;;;;;10.73;8.75;;;12.50;99.90;;;;;;5028130;28;20106;-85
2022/06/07 04:01:10;;;;;;;14.82;8.95;;;12.50;99.90;;;;;;5027601;28;20037;-85
2022/06/07 04:03:36;;;;;;;14.00;9.10;;;12.60;99.90;;;;;;5028070;28;20041;-84
2022/06/07 04:06:02;;;;;;;14.98;9.68;;;12.50;99.90;;;;;;5046640;28;20548;-85
2022/06/07 04:08:28;;;;;;;15.00;9.65;;;12.50;99.90;;;;;;5031570;28;20044;-84
2022/06/07 04:11:00;;;;;;;15.63;9.38;;;12.50;99.90;;;;;;5045410;28;20036;-85
2022/06/07 04:13:29;;;;;;;15.38;8.68;;;12.50;99.90;;;;;;5044672;28;20055;-83
2022/06/07 04:15:54;;;;;;;14.43;7.68;;;12.50;99.90;;;;;;5044630;28;20044;-84
2022/06/07 04:18:20;;;;;;;13.55;7.10;;;12.50;99.90;;;;;;5044464;28;20078;-84
2022/06/07 04:20:46;;;;;;;10.77;6.97;;;12.40;99.90;;;;;;5029148;28;20036;-85
2022/06/07 04:23:17;;;;;;;11.00;6.35;;;12.40;99.90;;;;;;5028519;28;20083;-85
2022/06/07 04:25:44;;;;;;;9.43;5.78;;;12.40;99.90;;;;;;5045974;28;20132;-85
2022/06/07 04:28:10;;;;;;;11.00;5.78;;;12.30;99.90;;;;;;5047452;28;20040;-86
2022/06/07 04:30:36;;;;;;;10.52;5.85;;;12.30;99.90;;;;;;5045004;28;20033;-87
2022/06/07 04:33:02;;;;;;;10.98;5.95;;;12.20;99.90;;;;;;5029766;28;20083;-88
2022/06/07 04:35:27;;;;;;;14.52;6.85;;;12.20;99.90;;;;;;5042642;28;20032;-86
2022/06/07 04:37:54;;;;;;;9.80;6.07;;;12.10;99.90;;;;;;5043465;28;20060;-88
2022/06/07 04:40:20;;;;;;;13.55;6.00;;;12.00;99.90;;;;;;5045210;28;20045;-85
2022/06/07 04:42:46;;;;;;;11.77;6.10;;;11.90;99.90;;;;;;5044396;28;20037;-87
2022/06/07 04:45:15;;;;;;;9.63;5.97;;;11.90;99.90;;;;;;5027018;28;20055;-86
2022/06/07 04:47:42;;;;;;;8.68;5.75;;;11.90;99.90;;;;;;5035257;28;20029;-85
2022/06/07 04:50:10;;;;;;;16.98;6.40;;;11.90;99.90;;;;;;5044713;28;20096;-85
2022/06/07 04:52:36;;;;;;;8.75;5.63;;;11.90;99.90;;;;;;5043178;28;20037;-83
2022/06/07 04:55:02;;;;;;;10.27;5.78;;;11.90;99.90;;;;;;5042905;28;20033;-84
2022/06/07 04:57:29;;;;;;;10.07;5.72;;;11.90;99.90;;;;;;5041989;28;20083;-84
2022/06/07 04:59:55;;;;;;;10.32;6.15;;;12.00;99.90;;;;;;5056671;28;20033;-85
2022/06/07 05:02:21;;;;;;;12.30;6.00;;;12.00;99.90;;;;;;5044099;28;20087;-85
2022/06/07 05:04:47;;;;;;;12.40;6.55;;;12.00;99.90;;;;;;5043403;28;20037;-84
2022/06/07 05:07:13;;;;;;;9.13;6.25;;;12.00;99.90;;;;;;5043056;28;20439;-86
2022/06/07 05:09:38;;;;;;;10.90;6.72;;;12.10;99.90;;;;;;5032276;28;20041;-86
2022/06/07 05:12:04;;;;;;;11.32;6.80;;;12.10;99.90;;;;;;5045626;28;20040;-86
2022/06/07 05:14:30;;;;;;;15.73;7.15;;;12.10;99.90;;;;;;5043957;28;20044;-86
2022/06/07 05:16:57;;;;;;;10.57;7.10;;;12.20;99.90;;;;;;5028638;28;20511;-84
2022/06/07 05:19:23;;;;;;;13.55;7.30;;;12.20;99.90;;;;;;5044700;28;20041;-85
2022/06/07 05:21:49;;;;;;;16.02;8.02;;;12.20;99.90;;;;;;5044711;28;20040;-86
2022/06/07 05:24:15;;;;;;;17.30;7.72;;;12.20;99.90;;;;;;5044546;28;20112;-86
2022/06/07 05:26:44;;;;;;;14.88;8.05;;;12.20;99.90;;;;;;5045373;28;20410;-84
2022/06/07 05:29:17;;;;;;;14.23;7.60;;;12.30;99.90;;;;;;5045449;28;20090;-84
2022/06/07 05:31:42;;;;;;;13.68;8.25;;;12.30;99.90;;;;;;5044998;28;20040;-85
2022/06/07 05:34:08;;;;;;;9.70;7.13;;;12.40;99.90;;;;;;5045192;28;20383;-85
2022/06/07 05:36:33;;;;;;;11.48;7.03;;;12.40;99.90;;;;;;5028302;28;20040;-84
2022/06/07 05:38:59;;;;;;;14.73;7.13;;;12.50;99.90;;;;;;5041934;28;20042;-85
2022/06/07 05:41:29;;;;;;;13.73;7.25;;;12.50;99.90;;;;;;5044311;28;20033;-84
2022/06/07 05:43:55;;;;;;;15.95;6.95;;;12.60;99.90;;;;;;5043088;28;20045;-83
2022/06/07 05:46:21;;;;;;;11.02;6.40;;;12.50;99.90;;;;;;5027511;28;20029;-86
2022/06/07 05:48:47;;;;;;;12.52;6.40;;;12.50;99.90;;;;;;5043702;28;20034;-83
2022/06/07 05:51:13;;;;;;;10.50;6.05;;;12.50;99.90;;;;;;5043519;28;20037;-86
2022/06/07 05:53:39;;;;;;;9.73;5.40;;;12.50;99.90;;;;;;5043617;28;20049;-85
2022/06/07 05:56:13;;;;;;;14.27;5.57;;;12.50;99.90;;;;;;5043561;28;20040;-84
2022/06/07 05:58:39;;;;;;;9.40;4.60;;;12.50;99.90;;;;;;5025745;28;20063;-84
2022/06/07 06:01:07;;;;;;;9.50;4.28;;;12.50;99.90;;;;;;5028095;28;20041;-82
2022/06/07 06:03:32;;;;;;;9.05;4.53;;;12.50;99.90;;;;;;5048510;28;20163;-85
2022/06/07 06:05:58;;;;;;;11.77;4.07;;;12.50;99.90;;;;;;5047897;28;20562;-84
2022/06/07 06:11:12;;;;;;;7.85;3.50;;;12.40;99.90;;;;;;5052240;28;20449;-84
2022/06/07 06:13:38;;;;;;;8.20;3.90;;;12.40;99.90;;;;;;5035609;28;20052;-85
2022/06/07 06:16:07;;;;;;;7.05;3.30;;;12.40;99.90;;;;;;5052530;28;20049;-86
2022/06/07 06:18:33;;;;;;;5.43;3.72;;;12.30;99.90;;;;;;5053024;28;20055;-85
2022/06/07 06:20:59;;;;;;;7.50;3.40;;;12.30;99.90;;;;;;5036573;28;20052;-84
2022/06/07 06:23:25;;;;;;;9.60;3.78;;;12.30;99.90;;;;;;5051134;28;20044;-84
2022/06/07 06:25:51;;;;;;;6.43;3.63;;;12.30;99.90;;;;;;5049000;28;20025;-84
2022/06/07 06:28:16;;;;;;;7.57;3.42;;;12.20;99.90;;;;;;5017784;28;20041;-85
2022/06/07 06:30:44;;;;;;;6.65;3.65;;;12.20;99.90;;;;;;5036554;28;20182;-84
2022/06/07 06:33:12;;;;;;;7.15;4.05;;;12.10;99.90;;;;;;5037244;28;20068;-84
2022/06/07 06:35:38;;;;;;;8.00;3.80;;;12.10;99.90;;;;;;5038944;28;20108;-85
2022/06/07 06:38:04;;;;;;;7.93;3.75;;;12.10;99.90;;;;;;5053123;28;20533;-85
2022/06/07 06:40:30;;;;;;;6.63;3.17;;;12.00;99.90;;;;;;5035844;28;20040;-85
2022/06/07 06:42:55;;;;;;;10.50;3.38;;;12.00;99.90;;;;;;5050804;28;20041;-84
2022/06/07 06:45:21;;;;;;;5.38;2.70;;;12.00;99.90;;;;;;5048920;28;20077;-84
2022/06/07 06:47:46;;;;;;;4.82;2.80;;;12.10;99.90;;;;;;5052318;28;20029;-85
2022/06/07 06:50:13;;;;;;;5.10;2.25;;;12.10;99.90;;;;;;5050940;28;20125;-84
2022/06/07 06:52:40;;;;;;;4.80;2.25;;;12.10;99.90;;;;;;5050009;28;20457;-86
2022/06/07 06:55:06;;;;;;;5.82;2.10;;;12.10;99.90;;;;;;5030863;28;20025;-85
2022/06/07 06:57:32;;;;;;;4.57;1.67;;;12.10;99.90;;;;;;5047264;28;20407;-83
2022/06/07 06:59:57;;;;;;;5.78;1.70;;;12.20;99.90;;;;;;5046519;28;20049;-84
2022/06/07 07:02:23;;;;;;;6.28;1.70;;;12.20;99.90;;;;;;5046781;28;20155;-84
2022/06/07 07:04:48;;;;;;;8.85;1.88;;;12.30;99.90;;;;;;5026335;28;20037;-84
2022/06/07 07:07:14;;;;;;;6.07;1.70;;;12.30;99.90;;;;;;5047512;28;20659;-84
2022/06/07 07:09:40;;;;;;;7.75;1.65;;;12.30;99.90;;;;;;5046890;28;20525;-84
2022/06/07 07:12:06;;;;;;;7.35;1.65;;;12.40;99.90;;;;;;5045306;28;20037;-84
2022/06/07 07:14:31;;;;;;;5.50;1.58;;;12.40;99.90;;;;;;5045042;28;20044;-84
2022/06/07 07:16:57;;;;;;;6.00;1.55;;;12.40;99.90;;;;;;5045564;28;20521;-86
2022/06/07 07:19:23;;;;;;;6.50;1.48;;;12.50;99.90;;;;;;5031534;28;20384;-84
2022/06/07 07:21:50;;;;;;;7.93;1.52;;;12.50;99.90;;;;;;5046462;28;20063;-84
2022/06/07 07:24:21;;;;;;;6.55;1.73;;;12.60;99.90;;;;;;5046098;28;20167;-83
2022/06/07 07:26:48;;;;;;;8.38;2.08;;;12.60;99.90;;;;;;5030744;28;20118;-83
2022/06/07 07:29:16;;;;;;;5.03;1.70;;;12.60;99.90;;;;;;5045056;28;20033;-83
2022/06/07 07:31:42;;;;;;;4.93;1.52;;;12.70;99.90;;;;;;5045551;28;20068;-83
2022/06/07 07:34:10;;;;;;;9.35;2.22;;;12.80;99.90;;;;;;5043881;28;20096;-84
2022/06/07 07:36:41;;;;;;;6.55;1.90;;;13.00;99.90;;;;;;5046703;28;20045;-84
2022/06/07 07:39:08;;;;;;;9.77;2.00;;;13.10;99.90;;;;;;5046847;28;20128;-84
2022/06/07 07:41:36;;;;;;;8.13;2.38;;;13.20;99.90;;;;;;5046445;28;20084;-84
2022/06/07 07:44:05;;;;;;;9.50;2.65;;;13.30;99.90;;;;;;5046450;28;20037;-84
2022/06/07 07:46:34;;;;;;;7.07;1.77;;;13.30;99.90;;;;;;5046574;28;20040;-83
2022/06/07 07:49:00;;;;;;;9.27;2.03;;;13.40;99.90;;;;;;5051008;28;20037;-84
2022/06/07 07:51:32;;;;;;;8.23;1.90;;;13.40;99.90;;;;;;5035068;28;20053;-84
2022/06/07 07:53:58;;;;;;;7.57;1.92;;;13.50;99.90;;;;;;5050121;28;20120;-84
2022/06/07 07:56:25;;;;;;;8.45;2.20;;;13.60;99.90;;;;;;5051064;28;20051;-85
2022/06/07 07:58:52;;;;;;;7.63;2.25;;;13.70;99.90;;;;;;5045611;28;20139;-84
2022/06/07 08:01:23;;;;;;;7.85;2.20;;;13.70;99.90;;;;;;5045637;28;20132;-84
2022/06/07 08:03:49;;;;;;;7.25;1.90;;;13.70;99.90;;;;;;5042633;28;20033;-85
2022/06/07 08:06:17;;;;;;;5.68;1.95;;;13.80;99.90;;;;;;5029182;28;20073;-83
2022/06/07 08:08:45;;;;;;;7.15;1.92;;;13.80;99.90;;;;;;5030711;28;20033;-84
2022/06/07 08:11:12;;;;;;;5.78;1.70;;;13.90;99.90;;;;;;5046654;28;20095;-82
2022/06/07 08:13:38;;;;;;;8.23;2.05;;;13.90;99.90;;;;;;5028337;28;20037;-84
2022/06/07 08:16:06;;;;;;;6.18;1.92;;;14.00;99.90;;;;;;5045851;28;20205;-82
2022/06/07 08:18:33;;;;;;;5.13;2.05;;;14.00;99.90;;;;;;5028812;28;20048;-82
2022/06/07 08:21:01;;;;;;;5.88;1.95;;;13.90;99.90;;;;;;5047517;28;20067;-83
2022/06/07 08:23:28;;;;;;;8.07;2.22;;;13.90;99.90;;;;;;5049799;28;20465;-84
2022/06/07 08:25:55;;;;;;;8.43;2.67;;;13.90;99.90;;;;;;5049735;28;20029;-82
2022/06/07 08:28:20;;;;;;;8.40;2.03;;;13.90;99.90;;;;;;5050794;28;20049;-84
2022/06/07 08:30:46;;;;;;;7.00;2.20;;;13.90;99.90;;;;;;5050838;28;20143;-83
2022/06/07 08:38:41;;;;;;;;;;;13.90;99.90;;;;;;5050127;28;20045;-84
2022/06/07 08:41:17;;;;;;;7.78;2.30;;;13.90;99.90;;;;;;5045931;28;19952;-82
2022/06/07 08:43:43;;;;;;;8.70;2.25;;;13.90;99.90;;;;;;5029120;28;20166;-83
2022/06/07 08:46:12;;;;;;;6.88;1.80;;;14.00;99.90;;;;;;5046515;28;20414;-84
2022/06/07 08:48:38;;;;;;;5.45;1.75;;;14.20;99.90;;;;;;5033218;28;20076;-85
2022/06/07 08:51:19;;;;;;;12.95;2.53;;;14.30;99.90;;;;;;5049942;28;20051;-83
2022/06/07 08:53:51;;;;;;;8.65;2.20;;;14.50;99.90;;;;;;5039124;28;20059;-84
2022/06/07 08:56:25;;;;;;;9.50;1.98;;;14.40;99.90;;;;;;5049620;28;20110;-84
2022/06/07 08:58:52;;;;;;;6.45;1.92;;;14.30;99.90;;;;;;5042834;28;20040;-81
2022/06/07 09:01:53;;;;;;;6.82;2.33;;;14.40;99.90;;;;;;5047968;28;20029;-83
2022/06/07 09:04:26;;;;;;;8.68;2.30;;;14.30;99.90;;;;;;5036985;28;20040;-84
2022/06/07 09:07:00;;;;;;;7.68;2.03;;;14.40;99.90;;;;;;5039588;28;20802;-83
2022/06/07 09:12:09;;;;;;;;;;;14.50;99.90;;;;;;5045031;28;20044;-84
2022/06/07 09:12:21;;;;;;;7.05;2.10;;;14.60;99.90;;;;;;5043147;28;19951;-83
2022/06/07 09:14:53;;;;;;;5.87;1.77;;;14.70;99.90;;;;;;5041800;28;20041;-84
2022/06/07 09:17:30;;;;;;;7.47;1.63;;;14.80;99.90;;;;;;5027868;28;20045;-83
2022/06/07 09:19:57;;;;;;;8.77;1.92;;;15.00;99.90;;;;;;5027209;28;20036;-85
2022/06/07 09:22:29;;;;;;;9.15;2.00;;;15.20;99.90;;;;;;5042102;28;20039;-85
2022/06/07 09:25:11;;;;;;;12.52;1.90;;;15.30;99.90;;;;;;5045337;28;20044;-85
2022/06/07 09:27:37;;;;;;;8.00;1.80;;;15.40;99.90;;;;;;5041599;28;20063;-82
2022/06/07 09:30:28;;;;;;;8.63;1.98;;;15.40;99.90;;;;;;5044777;28;20037;-85
2022/06/07 09:32:56;;;;;;;9.60;1.73;;;15.40;99.90;;;;;;5040510;28;20037;-83
2022/06/07 09:35:42;;;;;;;10.10;1.70;;;15.30;99.90;;;;;;5042541;28;20045;-84
2022/06/07 09:38:28;;;;;;;6.95;1.80;;;15.20;99.90;;;;;;5046287;28;20418;-84
2022/06/07 09:40:55;;;;;;;5.35;1.48;;;14.90;99.90;;;;;;5046522;28;20045;-83
2022/06/07 09:43:28;;;;;;;6.45;1.60;;;14.70;99.90;;;;;;5046460;28;20078;-83
2022/06/07 09:45:58;;;;;;;6.07;1.75;;;14.60;99.90;;;;;;5045671;28;20037;-83
2022/06/07 09:48:31;;;;;;;6.47;1.27;;;14.50;99.90;;;;;;5048631;28;20036;-86
2022/06/07 09:51:06;;;;;;;8.77;1.92;;;14.40;99.90;;;;;;5048164;28;20037;-85
2022/06/07 09:53:35;;;;;;;12.40;2.15;;;14.20;99.90;;;;;;5047754;28;20047;-83
2022/06/07 09:56:19;;;;;;;9.15;1.73;;;14.10;99.90;;;;;;5047890;28;20037;-84
2022/06/07 09:59:12;;;;;;;13.35;2.25;;;13.90;99.90;;;;;;5047032;28;20507;-85
2022/06/07 10:01:54;;;;;;;5.82;1.60;;;13.70;99.90;;;;;;5050155;28;20045;-82
2022/06/07 10:04:57;;;;;;;7.00;1.80;;;13.70;99.90;;;;;;5049698;28;20090;-84
2022/06/07 10:07:39;;;;;;;10.20;1.60;;;13.70;99.90;;;;;;5041209;28;20495;-82
2022/06/07 10:10:18;;;;;;;11.15;1.60;;;13.70;99.90;;;;;;5048902;28;20258;-82
2022/06/07 10:13:08;;;;;;;10.02;1.70;;;13.90;99.90;;;;;;5063940;28;20053;-82
2022/06/07 10:16:01;;;;;;;11.48;1.77;;;14.00;99.90;;;;;;5043803;28;20041;-85
2022/06/07 10:18:39;;;;;;;7.70;1.50;;;14.30;99.90;;;;;;5051946;28;20034;-81
2022/06/07 10:21:23;;;;;;;6.90;1.55;;;14.50;99.90;;;;;;5051056;28;20040;-82
2022/06/07 10:24:15;;;;;;;10.23;1.70;;;14.60;99.90;;;;;;5052011;28;20470;-81
2022/06/07 10:27:04;;;;;;;7.07;1.60;;;14.70;99.90;;;;;;5032898;28;20069;-82
2022/06/07 10:29:42;;;;;;;8.40;1.80;;;14.90;99.90;;;;;;5052581;28;20041;-83
2022/06/07 10:32:24;;;;;;;6.80;1.50;;;15.00;99.90;;;;;;5052124;28;20069;-82
2022/06/07 10:34:58;;;;;;;6.25;1.65;;;15.10;99.90;;;;;;5038658;28;20037;-82
2022/06/07 10:37:40;;;;;;;9.23;1.90;;;15.40;99.90;;;;;;5041253;28;20041;-80
2022/06/07 10:40:26;;;;;;;8.07;1.50;;;15.70;99.90;;;;;;5041088;28;20090;-81
2022/06/07 10:43:01;;;;;;;7.03;1.50;;;15.80;99.90;;;;;;5028766;28;20503;-80
2022/06/07 10:45:37;;;;;;;7.25;1.70;;;15.80;99.90;;;;;;5038919;28;20030;-83
2022/06/07 10:48:24;;;;;;;9.98;1.90;;;15.70;99.90;;;;;;5042448;28;20037;-81
2022/06/07 10:51:03;;;;;;;6.43;1.65;;;15.60;99.90;;;;;;5022869;28;20044;-83
2022/06/07 10:53:37;;;;;;;8.98;1.67;;;15.40;99.90;;;;;;5036341;28;20048;-82
2022/06/07 10:56:23;;;;;;;8.02;1.95;;;15.30;99.90;;;;;;5035430;28;21791;-81
2022/06/07 10:58:52;;;;;;;9.15;1.88;;;15.10;99.90;;;;;;5046788;28;20094;-83
2022/06/07 11:01:27;;;;;;;4.70;1.60;;;14.90;99.90;;;;;;5048981;28;20136;-82
2022/06/07 11:10:06;;;;;;;10.10;2.10;;;14.90;99.90;;;;;;5045267;28;20049;-82
2022/06/07 11:12:42;;;;;;;6.07;1.52;;;14.90;99.90;;;;;;5044713;28;20036;-81
2022/06/07 11:15:25;;;;;;;9.35;2.22;;;14.80;99.90;;;;;;5060842;28;20120;-81
2022/06/07 11:18:07;;;;;;;12.95;1.95;;;14.80;99.90;;;;;;5029165;28;20617;-81
2022/06/07 11:20:36;;;;;;;5.75;1.65;;;14.90;99.90;;;;;;5028935;28;20036;-81
2022/06/07 11:23:15;;;;;;;10.07;2.10;;;15.10;99.90;;;;;;5045234;28;20041;-80
2022/06/07 11:25:58;;;;;;;5.97;1.50;;;15.30;99.90;;;;;;5046953;28;20057;-81
2022/06/07 11:28:41;;;;;;;7.05;1.58;;;15.40;99.90;;;;;;5044809;28;20132;-81
2022/06/07 11:31:39;;;;;;;7.70;2.35;;;15.50;99.90;;;;;;5049644;28;20041;-82
2022/06/07 11:34:31;;;;;;;6.20;1.30;;;15.60;99.90;;;;;;5044265;28;20103;-83
2022/06/07 11:37:15;;;;;;;7.40;1.48;;;15.60;99.90;;;;;;5044427;28;20088;-83
2022/06/07 11:39:41;;;;;;;5.68;1.33;;;15.80;99.90;;;;;;5045431;28;20168;-81
2022/06/07 11:42:12;;;;;;;4.70;1.27;;;16.00;99.90;;;;;;5042212;28;20546;-81
2022/06/07 11:44:58;;;;;;;4.43;1.20;;;16.20;99.90;;;;;;5056212;28;20494;-83
2022/06/07 11:47:29;;;;;;;3.03;1.08;;;16.30;99.90;;;;;;5049053;28;20045;-82
2022/06/07 11:49:58;;;;;;;7.00;1.42;;;16.20;99.90;;;;;;5048509;28;20048;-83
2022/06/07 11:52:32;;;;;;;6.72;1.45;;;16.10;99.90;;;;;;5044547;28;20145;-81
2022/06/07 11:55:12;;;;;;;4.95;1.50;;;16.00;99.90;;;;;;5045998;28;20033;-83
2022/06/07 11:57:56;;;;;;;4.65;1.30;;;16.00;99.90;;;;;;5029364;28;20425;-82
2022/06/07 12:00:22;;;;;;;8.70;1.60;;;16.10;99.90;;;;;;5041508;28;20089;-82
2022/06/07 12:02:56;;;;;;;5.38;1.30;;;16.30;99.90;;;;;;5028252;28;20041;-82
2022/06/07 12:05:42;;;;;;;5.85;1.60;;;16.30;99.90;;;;;;5045462;28;20083;-83
2022/06/07 12:08:30;;;;;;;3.75;1.58;;;16.40;99.90;;;;;;5066505;28;20059;-82
2022/06/07 12:11:03;;;;;;;9.55;1.85;;;16.50;99.90;;;;;;5043908;28;20049;-83
2022/06/07 12:13:49;;;;;;;10.85;1.85;;;16.60;99.90;;;;;;5051081;28;20051;-82
2022/06/07 12:16:31;;;;;;;9.55;2.10;;;16.70;99.90;;;;;;5034348;28;20052;-84
2022/06/07 12:18:58;;;;;;;6.20;1.63;;;17.10;99.90;;;;;;5033511;28;20045;-81
2022/06/07 12:21:25;;;;;;;10.10;1.95;;;17.30;99.90;;;;;;5050135;28;20044;-81
2022/06/07 12:24:09;;;;;;;12.05;2.53;;;17.50;99.90;;;;;;5047126;28;20040;-82
2022/06/07 12:26:34;;;;;;;10.25;1.92;;;17.30;99.90;;;;;;5042893;28;20064;-82
2022/06/07 12:29:11;;;;;;;7.43;1.70;;;17.00;99.90;;;;;;5043819;28;20064;-84
2022/06/07 12:31:55;;;;;;;10.38;2.10;;;16.70;99.90;;;;;;5043369;28;20040;-82
2022/06/07 12:34:23;;;;;;;;;;;16.50;99.90;;;;;;5043366;28;20033;-82
2022/06/07 12:36:54;;;;;;;6.47;1.85;;;16.30;99.90;;;;;;5040436;28;19925;-82
2022/06/07 12:39:20;;;;;;;9.05;1.48;;;16.30;99.90;;;;;;5041146;28;20517;-82
2022/06/07 12:42:08;;;;;;;5.93;1.45;;;16.30;99.90;;;;;;5041446;28;20045;-81
2022/06/07 12:44:37;;;;;;;8.18;1.70;;;16.20;99.90;;;;;;5042122;28;20033;-82
2022/06/07 12:47:05;;;;;;;6.60;2.25;;;16.20;99.90;;;;;;5050102;28;20037;-82
2022/06/07 12:49:40;;;;;;;6.95;1.90;;;16.20;99.90;;;;;;5033873;28;20033;-84
2022/06/07 12:52:11;;;;;;;8.70;1.85;;;16.30;99.90;;;;;;5033784;28;20041;-83
2022/06/07 12:54:37;;;;;;;6.05;1.55;;;16.50;99.90;;;;;;5032874;28;20090;-82
2022/06/07 12:57:17;;;;;;;10.20;1.52;;;16.60;99.90;;;;;;5050306;28;20413;-84
2022/06/07 13:00:09;;;;;;;7.50;1.33;;;16.70;99.90;;;;;;5033993;28;20052;-84
2022/06/07 13:03:24;;;;;;;8.15;1.65;;;16.70;99.90;;;;;;5050090;28;20040;-85
2022/06/07 13:06:18;;;;;;;6.28;1.40;;;16.70;99.90;;;;;;5039018;28;20131;-84
2022/06/07 13:09:04;;;;;;;6.63;1.50;;;16.90;99.90;;;;;;5033495;28;20033;-82
2022/06/07 13:11:37;;;;;;;3.47;1.52;;;17.10;99.90;;;;;;5033086;28;20068;-83
2022/06/07 13:14:04;;;;;;;5.65;1.50;;;17.30;99.90;;;;;;5049175;28;20110;-83
2022/06/07 13:16:39;;;;;;;6.40;1.60;;;17.50;99.90;;;;;;5049958;28;20501;-82
2022/06/07 13:19:17;;;;;;;5.75;1.90;;;18.00;99.90;;;;;;5049239;28;20529;-83
2022/06/07 13:22:00;;;;;;;5.80;1.77;;;18.30;99.90;;;;;;5032069;28;20029;-82